Pagrindinis puslapis
METAR-TAF:

METAR-TAF

Oro uostai :

Mumbajus, Indija

platuma: 19-05-53N, ilguma: 072-50-02E, Aukštis: 4 m

Dabartinis oras

Ataskaita buvo paskelbta 33 minutes, ne 04:30 UTC
Vėjas 7 kt iš Pietvakarių su gūsio iki 17 kt
Temperatūra 26°C
Drėgmė 89%
Slėgis 1004 hPa
Matomumas: 2000 m
Išsisklaidę debesys ne aukštis 1000 ft
Išsisklaidę debesys ne aukštis 1500 ft
Mažai debesys ne aukštis 3000 ft, Liūtiniai kamuoliniai debesys.
Apsiniaukę ne aukštis 8000 ft
lietus

METAR: VAJJ 140430Z 22007G17KT 2000 -RA SCT010 SCT015 FEW030CB OVC080 26/24 Q1004 TEMPO 1500 SHRA

Laikas: 10:33 (05:03 UTC)


TAF: trūkstamas

Orai ataskaitas ir orų prognozės (METAR, TAF).

turimą stotys yra geltonos ir raudonos taškus žemėlapyje.

Perkelti pele per norėdami pamatyti stoties vardą.

Tada spustelėkite, norėdami matyti oro stebėjimo ir prognozės.

Norėdami pakeisti žemėlapį: spustelėkite ant žalios mygtukų su juodo kryžiaus žemyn,; žalią mygtuką su brūkšneliu, jei norite nutolinti; arba žalių rodyklių gretimoms žemėlapius.


METAR-TAF: